• Join FlightAware (Why Join?)
  • Login
  • US Flag 
02:03AM EDT


 

Airport Tracker/Info


-or-


 

Live Flight TrackerFlight Track Log ✈ N1588R ✈ 21-Jun-2014 ✈ KHTO - KSFZ

Flight Track Log - Related Links

Times and Time Zones

All times are in EDT time to prevent confusion due to time zone crossing. See the N1588R flight status page for this flight to view local times or setup timezone preferences in your user account.

Time Position Orientation Groundspeed Altitude Reporting Facility
EDT Latitude Longitude Course Direction KTS MPH feet Rate Location/Type
03:07PM 41.3853 -72.5039 57° Northeast 135 155 7,500  Level Boston Center
03:08PM 41.4047 -72.4639 57° Northeast 133 153 7,500  Level Boston Center
03:09PM 41.4275 -72.4236 53° Northeast 130 150 7,600  Climbing Boston Center
03:10PM 41.4439 -72.4003 47° Northeast 127 146 7,500 -120 Descending Boston Center
03:10PM 41.4494 -72.3864 62° Northeast 129 148 7,500  Level Boston Center
03:11PM 41.4667 -72.3542 54° Northeast 127 146 7,500  Level Boston Center
03:11PM 41.4692 -72.3481 61° Northeast 128 147 7,500  Level Boston Center
03:12PM 41.4883 -72.3133 54° Northeast 127 146 7,500  Level Boston Center
03:13PM 41.5094 -72.2753 53° Northeast 128 147 7,600  Climbing Boston Center
03:14PM 41.5311 -72.2344 55° Northeast 129 148 7,600  Level Boston Center
03:15PM 41.5536 -72.1908 55° Northeast 127 146 7,600  Level Boston Center
03:16PM 41.5719 -72.1547 56° Northeast 127 146 7,600  Level Boston Center
03:17PM 41.5931 -72.1164 54° Northeast 131 151 7,600 -60 Level Boston Center
03:18PM 41.6117 -72.0800 56° Northeast 134 154 7,500 -120 Descending Boston Center
03:18PM 41.6169 -72.0703 54° Northeast 130 150 7,500  Level Boston Center
03:19PM 41.6333 -72.0392 55° Northeast 134 154 7,500  Level Boston Center
03:19PM 41.6381 -72.0297 56° Northeast 131 151 7,500 -480 Level Boston Center
03:20PM 41.6622 -71.9853 54° Northeast 137 158 6,900 -540 Descending Boston Center
03:21PM 41.6844 -71.9442 54° Northeast 137 158 6,400 -600 Descending Boston Center
03:22PM 41.6992 -71.9108 59° Northeast 135 155 5,900 -600 Descending Boston Center
03:22PM 41.7053 -71.9019 47° Northeast 137 158 5,800 -420 Descending Boston Center
03:23PM 41.7208 -71.8697 57° Northeast 132 152 5,500 -540 Descending Boston Center
03:23PM 41.7256 -71.8600 57° Northeast 136 157 5,300 -600 Descending Boston Center
03:24PM 41.7411 -71.8339 51° Northeast 133 153 5,000 -420 Descending Boston Center
03:24PM 41.7500 -71.8183 53° Northeast 135 155 4,900 -480 Descending Boston Center
03:25PM 41.7658 -71.7883 55° Northeast 136 157 4,500 -600 Descending Boston Center
03:25PM 41.7711 -71.7764 59° Northeast 135 155 4,300 -240 Descending Boston Center
03:26PM 41.7817 -71.7536 58° Northeast 135 155 4,300 -420 Level Boston Center
03:26PM 41.7931 -71.7353 50° Northeast 135 155 3,900 -540 Descending Boston Center
03:27PM 41.8058 -71.7106 55° Northeast 135 155 3,800 -300 Descending Boston Center
03:27PM 41.8161 -71.6903 56° Northeast 135 155 3,600 -540 Descending Boston Center
03:28PM 41.8308 -71.6619 55° Northeast 141 162 3,200 -540 Descending Boston Center
03:28PM 41.8386 -71.6483 53° Northeast 136 157 3,100 -120 Descending Boston Center
03:29PM 41.8561 -71.6125 57° Northeast 135 155 3,100  Level Boston Center